Time;durP1;ratioP1;P1;durP2;ratioP2;P2;SDS_P1;SDS_P2;PMS_P1;PMS_P2;Temp;Humidity;BMP_temperature;BMP_pressure;BME280_temperature;BME280_humidity;BME280_pressure;Samples;Min_cycle;Max_cycle;Signal;HPM_P1;HPM_P2
2020/12/09 00:00:43;;;;;;;163.85;66.38;;;1.80;99.90;;;;;;4213214;28;20024;-81
2020/12/09 00:02:43;;;;;;;156.35;66.40;;;1.80;99.90;;;;;;4213116;28;20043;-80
2020/12/09 00:04:44;;;;;;;173.60;65.57;;;1.70;99.90;;;;;;4195053;28;20033;-80
2020/12/09 00:06:45;;;;;;;154.50;66.53;;;1.70;99.90;;;;;;4195144;28;20458;-80
2020/12/09 00:08:46;;;;;;;180.18;69.70;;;1.70;99.90;;;;;;4211751;28;20127;-81
2020/12/09 00:10:48;;;;;;;168.85;66.20;;;1.80;99.90;;;;;;4193478;28;20035;-81
2020/12/09 00:12:49;;;;;;;157.10;64.88;;;1.70;99.90;;;;;;4193256;28;20025;-81
2020/12/09 00:14:50;;;;;;;148.05;66.45;;;1.80;99.90;;;;;;4211310;28;20074;-81
2020/12/09 00:16:51;;;;;;;155.80;66.40;;;1.80;99.90;;;;;;4193404;28;20062;-81
2020/12/09 00:18:52;;;;;;;167.95;70.47;;;1.80;99.90;;;;;;4211166;28;20356;-81
2020/12/09 00:20:52;;;;;;;173.82;71.10;;;1.90;99.90;;;;;;4193331;28;20441;-81
2020/12/09 00:22:53;;;;;;;196.75;77.88;;;1.80;99.90;;;;;;4193563;28;20033;-81
2020/12/09 00:24:54;;;;;;;206.98;76.70;;;1.80;99.90;;;;;;4203771;28;20028;-81
2020/12/09 00:26:54;;;;;;;212.90;75.88;;;1.70;99.90;;;;;;4207262;28;20438;-80
2020/12/09 00:28:56;;;;;;;228.57;78.43;;;1.70;99.90;;;;;;4212902;28;20028;-80
2020/12/09 00:30:56;;;;;;;341.55;89.78;;;1.70;99.90;;;;;;4211050;28;20106;-81
2020/12/09 00:32:57;;;;;;;335.73;91.03;;;1.60;99.90;;;;;;4207117;28;20112;-81
2020/12/09 00:34:58;;;;;;;339.45;92.25;;;1.60;99.90;;;;;;4178023;28;20026;-81
2020/12/09 00:36:58;;;;;;;419.77;100.18;;;1.50;99.90;;;;;;4204063;28;20024;-81
2020/12/09 00:38:59;;;;;;;377.02;97.68;;;1.50;99.90;;;;;;4194761;28;20396;-81
2020/12/09 00:40:59;;;;;;;357.23;94.05;;;1.40;99.90;;;;;;4211383;28;20032;-81
2020/12/09 00:43:01;;;;;;;378.70;101.28;;;1.40;99.90;;;;;;4212654;28;20502;-81
2020/12/09 00:45:02;;;;;;;317.20;90.38;;;1.40;99.90;;;;;;4211335;28;20025;-79
2020/12/09 00:47:03;;;;;;;264.52;87.53;;;1.40;99.90;;;;;;4215776;28;20429;-80
2020/12/09 00:49:03;;;;;;;321.25;94.40;;;1.40;99.90;;;;;;4215833;28;20032;-80
2020/12/09 00:51:04;;;;;;;377.35;98.53;;;1.40;99.90;;;;;;4214729;28;20020;-80
2020/12/09 00:53:05;;;;;;;367.77;91.68;;;1.40;99.90;;;;;;4215884;28;20077;-80
2020/12/09 00:55:06;;;;;;;320.23;90.00;;;1.40;99.90;;;;;;4215489;28;20533;-81
2020/12/09 00:57:06;;;;;;;308.25;90.72;;;1.40;99.90;;;;;;4215590;28;20106;-80
2020/12/09 00:59:07;;;;;;;242.77;84.60;;;1.40;99.90;;;;;;4215523;28;20036;-80
2020/12/09 01:01:10;;;;;;;420.48;105.85;;;1.40;99.90;;;;;;4197483;28;20020;-80
2020/12/09 01:03:10;;;;;;;356.27;93.68;;;1.40;99.90;;;;;;4197611;28;20028;-80
2020/12/09 01:05:11;;;;;;;332.83;91.75;;;1.50;99.90;;;;;;4215598;28;20028;-80
2020/12/09 01:07:12;;;;;;;586.03;122.90;;;1.50;99.90;;;;;;4215368;28;20537;-80
2020/12/09 01:09:12;;;;;;;562.13;116.35;;;1.50;99.90;;;;;;4215336;28;20414;-80
2020/12/09 01:11:14;;;;;;;370.45;95.32;;;1.60;99.90;;;;;;4215264;28;20049;-80
2020/12/09 01:13:16;;;;;;;507.40;110.97;;;1.60;99.90;;;;;;4197349;28;20027;-81
2020/12/09 01:15:18;;;;;;;650.38;131.05;;;1.60;99.90;;;;;;4197300;28;20021;-81
2020/12/09 01:17:18;;;;;;;475.13;108.90;;;1.60;99.90;;;;;;4214876;28;20111;-81
2020/12/09 01:19:19;;;;;;;678.03;132.93;;;1.50;99.90;;;;;;4215470;28;20035;-80
2020/12/09 01:21:27;;;;;;;442.48;104.00;;;1.50;99.90;;;;;;4215330;28;20029;-81
2020/12/09 01:23:27;;;;;;;428.77;100.18;;;1.40;99.90;;;;;;4215371;28;20025;-81
2020/12/09 01:25:28;;;;;;;205.13;69.43;;;1.30;99.90;;;;;;4197276;28;20560;-81
2020/12/09 01:27:29;;;;;;;201.48;72.60;;;1.20;99.90;;;;;;4215091;28;20035;-81
2020/12/09 01:29:29;;;;;;;194.40;71.22;;;1.10;99.90;;;;;;4215038;28;20035;-81
2020/12/09 01:31:30;;;;;;;260.92;76.78;;;1.00;99.90;;;;;;4215157;28;20028;-81
2020/12/09 01:33:31;;;;;;;336.88;85.47;;;1.00;99.90;;;;;;4215166;28;20115;-81
2020/12/09 01:35:31;;;;;;;664.97;119.63;;;0.90;99.90;;;;;;4213611;28;20047;-81
2020/12/09 01:37:32;;;;;;;565.53;109.03;;;0.80;99.90;;;;;;4200618;28;20472;-81
2020/12/09 01:39:33;;;;;;;564.80;105.10;;;0.70;99.90;;;;;;4215234;28;20071;-81
2020/12/09 01:41:33;;;;;;;329.67;79.10;;;0.50;99.90;;;;;;4196879;28;20480;-81
2020/12/09 01:43:43;;;;;;;394.63;84.65;;;0.40;99.90;;;;;;4214804;28;20032;-81
2020/12/09 01:45:44;;;;;;;430.40;86.60;;;0.40;99.90;;;;;;4211233;28;20032;-82
2020/12/09 01:47:46;;;;;;;555.45;103.78;;;0.40;99.90;;;;;;4214821;28;20081;-81
2020/12/09 01:49:46;;;;;;;555.00;105.85;;;0.40;99.90;;;;;;4214963;28;20483;-81
2020/12/09 01:51:47;;;;;;;591.03;107.25;;;0.40;99.90;;;;;;4195293;28;20038;-80
2020/12/09 01:53:48;;;;;;;678.33;116.47;;;0.40;99.90;;;;;;4195108;28;20044;-80
2020/12/09 01:55:48;;;;;;;558.08;98.15;;;0.40;99.90;;;;;;4211908;28;20032;-80
2020/12/09 01:57:49;;;;;;;764.45;122.95;;;0.30;99.90;;;;;;4213184;28;20434;-80
2020/12/09 01:59:49;;;;;;;546.15;94.60;;;0.20;99.90;;;;;;4213200;28;20043;-79
2020/12/09 02:01:50;;;;;;;772.88;121.68;;;0.10;99.90;;;;;;4198059;28;20029;-80
2020/12/09 02:03:51;;;;;;;829.75;127.28;;;0.10;99.90;;;;;;4199593;28;20137;-80
2020/12/09 02:05:51;;;;;;;619.47;104.70;;;0.00;99.90;;;;;;4213612;28;20024;-80
2020/12/09 02:07:52;;;;;;;636.60;111.68;;;0.00;99.90;;;;;;4205724;28;20425;-80
2020/12/09 02:10:06;;;;;;;484.80;94.40;;;-0.10;99.90;;;;;;4207428;28;20025;-80
2020/12/09 02:12:07;;;;;;;;;;;0.00;99.90;;;;;;4210512;28;20020;-80
2020/12/09 02:14:07;;;;;;;420.65;81.13;;;0.00;99.90;;;;;;4196623;28;19908;-79
2020/12/09 02:16:08;;;;;;;556.00;105.00;;;0.10;99.90;;;;;;4202888;28;20028;-80
2020/12/09 02:18:09;;;;;;;391.70;85.05;;;0.00;99.90;;;;;;4213002;28;20491;-80
2020/12/09 02:20:09;;;;;;;302.15;78.75;;;0.00;99.90;;;;;;4207033;28;20032;-80
2020/12/09 02:22:11;;;;;;;198.63;66.93;;;-0.10;99.90;;;;;;4191217;28;20485;-80
2020/12/09 02:24:12;;;;;;;202.27;71.50;;;-0.10;99.90;;;;;;4195616;28;20037;-80
2020/12/09 02:26:12;;;;;;;202.43;68.25;;;-0.10;99.90;;;;;;4214272;28;20717;-80
2020/12/09 02:28:13;;;;;;;220.23;70.32;;;-0.10;99.90;;;;;;4212076;28;20031;-80
2020/12/09 02:30:15;;;;;;;177.35;66.93;;;0.00;99.90;;;;;;4200960;28;20104;-80
2020/12/09 02:32:15;;;;;;;189.05;68.28;;;-0.10;99.90;;;;;;4211969;28;20028;-80
2020/12/09 02:34:16;;;;;;;164.55;61.97;;;-0.20;99.90;;;;;;4187644;28;20062;-80
2020/12/09 02:36:17;;;;;;;259.52;71.63;;;-0.20;99.90;;;;;;4208829;28;20099;-80
2020/12/09 02:38:18;;;;;;;274.23;73.07;;;-0.30;99.90;;;;;;4200239;28;20440;-80
2020/12/09 02:40:18;;;;;;;227.95;66.35;;;-0.40;99.90;;;;;;4213490;28;20036;-80
2020/12/09 02:42:19;;;;;;;201.57;58.80;;;-0.40;99.90;;;;;;4213920;28;20051;-80
2020/12/09 02:44:19;;;;;;;201.38;66.22;;;-0.40;99.90;;;;;;4213757;28;20028;-80
2020/12/09 02:46:20;;;;;;;156.65;60.10;;;-0.30;99.90;;;;;;4212934;28;20374;-81
2020/12/09 02:48:21;;;;;;;174.20;67.70;;;-0.20;99.90;;;;;;4195729;28;20059;-80
2020/12/09 02:50:21;;;;;;;142.95;60.15;;;-0.10;99.90;;;;;;4213981;28;20048;-81
2020/12/09 02:52:22;;;;;;;193.45;67.80;;;0.10;99.90;;;;;;4195782;28;20036;-80
2020/12/09 02:54:23;;;;;;;189.75;68.32;;;0.20;99.90;;;;;;4207549;28;20032;-81
2020/12/09 02:56:23;;;;;;;171.40;62.13;;;0.30;99.90;;;;;;4196967;28;20028;-80
2020/12/09 02:58:26;;;;;;;184.68;63.10;;;0.40;99.90;;;;;;4197230;28;20383;-81
2020/12/09 03:00:27;;;;;;;166.20;64.68;;;0.50;99.90;;;;;;4192253;28;20032;-80
2020/12/09 03:02:27;;;;;;;188.50;64.60;;;0.60;99.90;;;;;;4213698;28;20028;-80
2020/12/09 03:04:28;;;;;;;142.95;59.83;;;0.80;99.90;;;;;;4200038;28;20039;-80
2020/12/09 03:06:29;;;;;;;183.05;66.32;;;0.80;99.90;;;;;;4195471;28;20478;-80
2020/12/09 03:08:29;;;;;;;192.68;65.45;;;0.90;99.90;;;;;;4195943;28;20436;-80
2020/12/09 03:10:30;;;;;;;175.20;65.18;;;1.00;99.90;;;;;;4195730;28;20105;-80
2020/12/09 03:12:31;;;;;;;194.90;64.97;;;1.00;99.90;;;;;;4208649;28;20165;-80
2020/12/09 03:14:31;;;;;;;162.68;59.78;;;1.10;99.90;;;;;;4213580;28;20032;-80
2020/12/09 03:16:32;;;;;;;164.52;63.20;;;1.20;99.90;;;;;;4213541;28;20346;-80
2020/12/09 03:18:32;;;;;;;153.65;63.40;;;1.20;99.90;;;;;;4213642;28;20039;-81
2020/12/09 03:20:33;;;;;;;174.35;65.65;;;1.30;99.90;;;;;;4213515;28;20028;-80
2020/12/09 03:22:34;;;;;;;201.75;68.63;;;1.40;99.90;;;;;;4213363;28;20093;-80
2020/12/09 03:24:34;;;;;;;236.60;68.15;;;1.50;99.90;;;;;;4211016;28;20043;-80
2020/12/09 03:26:35;;;;;;;235.00;72.47;;;1.60;99.90;;;;;;4201117;28;20039;-80
2020/12/09 03:28:36;;;;;;;260.65;73.65;;;1.80;99.90;;;;;;4206595;28;20116;-81
2020/12/09 03:30:37;;;;;;;286.00;79.65;;;1.80;99.90;;;;;;4194358;28;20509;-81
2020/12/09 03:32:37;;;;;;;273.48;76.03;;;1.90;99.90;;;;;;4206825;28;20109;-81
2020/12/09 03:34:38;;;;;;;277.73;76.35;;;2.00;99.90;;;;;;4194111;28;20028;-81
2020/12/09 03:36:38;;;;;;;318.23;77.00;;;2.00;99.90;;;;;;4211613;28;20521;-81
2020/12/09 03:38:39;;;;;;;296.30;74.10;;;2.10;99.90;;;;;;4200520;28;20437;-81
2020/12/09 03:40:40;;;;;;;274.02;75.40;;;2.20;99.90;;;;;;4193724;28;20033;-81
2020/12/09 03:42:40;;;;;;;256.80;73.47;;;2.20;99.90;;;;;;4193366;28;20044;-80
2020/12/09 03:44:41;;;;;;;241.60;72.32;;;2.20;99.90;;;;;;4210295;28;20032;-80
2020/12/09 03:46:42;;;;;;;255.05;72.88;;;2.20;99.90;;;;;;4197182;28;20418;-81
2020/12/09 03:48:43;;;;;;;257.50;71.72;;;2.30;99.90;;;;;;4210381;28;20028;-80
2020/12/09 03:50:43;;;;;;;265.90;74.40;;;2.20;99.90;;;;;;4211492;28;20446;-80
2020/12/09 03:52:44;;;;;;;290.75;81.25;;;2.20;99.90;;;;;;4210352;28;20024;-80
2020/12/09 03:54:45;;;;;;;293.00;80.35;;;2.20;99.90;;;;;;4211321;28;20024;-79
2020/12/09 03:56:45;;;;;;;249.20;72.28;;;2.20;99.90;;;;;;4211285;28;20026;-82
2020/12/09 03:58:46;;;;;;;252.10;72.40;;;2.10;99.90;;;;;;4193746;28;20024;-81
2020/12/09 04:00:46;;;;;;;262.17;77.65;;;2.10;99.90;;;;;;4213153;28;20364;-82
2020/12/09 04:02:47;;;;;;;268.58;73.82;;;2.10;99.90;;;;;;4212564;28;20020;-82
2020/12/09 04:04:47;;;;;;;252.60;70.90;;;2.00;99.90;;;;;;4212930;28;20498;-81
2020/12/09 04:06:48;;;;;;;247.77;69.30;;;2.00;99.90;;;;;;4199906;28;20460;-82
2020/12/09 04:08:48;;;;;;;276.10;74.43;;;2.00;99.90;;;;;;4211435;28;20077;-82
2020/12/09 04:10:49;;;;;;;294.10;73.30;;;2.00;99.90;;;;;;4211479;28;20028;-81
2020/12/09 04:12:50;;;;;;;241.30;75.78;;;2.00;99.90;;;;;;4194875;28;20484;-82
2020/12/09 04:14:52;;;;;;;270.77;73.70;;;2.00;99.90;;;;;;4212975;28;20036;-82
2020/12/09 04:16:52;;;;;;;307.48;78.10;;;2.00;99.90;;;;;;4213055;28;20028;-82
2020/12/09 04:18:53;;;;;;;274.08;76.43;;;2.10;99.90;;;;;;4196063;28;20052;-82
2020/12/09 04:20:54;;;;;;;320.98;84.10;;;2.10;99.90;;;;;;4216377;28;20032;-82
2020/12/09 04:22:54;;;;;;;320.08;82.28;;;2.10;99.90;;;;;;4198043;28;20029;-82
2020/12/09 04:24:55;;;;;;;409.10;89.20;;;2.10;99.90;;;;;;4216354;28;20029;-82
2020/12/09 04:26:55;;;;;;;282.30;78.28;;;2.10;99.90;;;;;;4214922;28;20028;-82
2020/12/09 04:28:56;;;;;;;306.95;79.53;;;2.10;99.90;;;;;;4198345;28;20404;-81
2020/12/09 04:30:56;;;;;;;283.48;78.30;;;2.20;99.90;;;;;;4186430;28;20040;-82
2020/12/09 04:32:57;;;;;;;339.90;81.97;;;2.20;99.90;;;;;;4212191;28;20448;-80
2020/12/09 04:34:58;;;;;;;284.90;76.85;;;2.20;99.90;;;;;;4196142;28;20115;-80
2020/12/09 04:36:59;;;;;;;279.50;76.63;;;2.20;99.90;;;;;;4213942;28;20036;-80
2020/12/09 04:39:00;;;;;;;236.65;69.82;;;2.20;99.90;;;;;;4207220;28;20080;-81
2020/12/09 04:41:01;;;;;;;264.95;74.43;;;2.20;99.90;;;;;;4214797;28;20074;-80
2020/12/09 04:43:03;;;;;;;256.38;74.47;;;2.20;99.90;;;;;;4197314;28;20032;-82
2020/12/09 04:45:04;;;;;;;263.85;73.90;;;2.10;99.90;;;;;;4199216;28;20035;-82
2020/12/09 04:47:05;;;;;;;271.55;75.10;;;2.10;99.90;;;;;;4197743;28;20411;-82
2020/12/09 04:49:12;;;;;;;277.67;75.45;;;2.10;99.90;;;;;;4198001;28;20040;-80
2020/12/09 04:51:58;;;;;;;255.13;72.38;;;2.00;99.90;;;;;;4197687;28;20070;-82
2020/12/09 04:54:00;;;;;;;257.48;77.28;;;2.00;99.90;;;;;;4197765;28;20027;-82
2020/12/09 04:56:00;;;;;;;276.63;74.43;;;1.90;99.90;;;;;;4199054;28;20238;-81
2020/12/09 04:58:13;;;;;;;291.55;79.57;;;1.90;99.90;;;;;;4198810;28;20021;-80
2020/12/09 05:00:14;;;;;;;277.90;77.10;;;1.90;99.90;;;;;;4199059;28;20057;-82
2020/12/09 05:02:15;;;;;;;268.75;78.38;;;1.90;99.90;;;;;;4199071;28;20021;-80
2020/12/09 05:04:25;;;;;;;311.67;78.50;;;1.90;99.90;;;;;;4198843;28;20024;-82
2020/12/09 05:06:26;;;;;;;290.23;80.03;;;1.80;99.90;;;;;;4197631;28;20104;-82
2020/12/09 05:08:33;;;;;;;316.55;82.65;;;1.90;99.90;;;;;;4186429;28;20108;-80
2020/12/09 05:10:36;;;;;;;308.25;81.63;;;1.90;99.90;;;;;;4194864;28;20107;-80
2020/12/09 05:12:46;;;;;;;334.70;80.15;;;1.80;99.90;;;;;;4182303;28;20029;-80
2020/12/09 05:14:49;;;;;;;294.15;81.65;;;1.80;99.90;;;;;;4190438;28;20024;-80
2020/12/09 05:16:58;;;;;;;290.63;76.85;;;1.80;99.90;;;;;;4187695;28;20029;-81
2020/12/09 05:19:03;;;;;;;287.52;78.40;;;1.80;99.90;;;;;;4196754;28;20029;-80
2020/12/09 05:21:13;;;;;;;282.08;79.40;;;1.80;99.90;;;;;;4201223;28;20021;-80
2020/12/09 05:23:14;;;;;;;318.90;83.57;;;1.90;99.90;;;;;;4198871;28;20032;-80
2020/12/09 05:25:14;;;;;;;356.40;88.53;;;1.90;99.90;;;;;;4188174;28;20522;-82
2020/12/09 05:27:15;;;;;;;421.42;97.90;;;1.90;99.90;;;;;;4206909;28;20035;-80
2020/12/09 05:29:18;;;;;;;466.35;99.95;;;1.90;99.90;;;;;;4196524;28;20044;-82
2020/12/09 05:31:22;;;;;;;366.80;90.27;;;1.90;99.90;;;;;;4198451;28;20484;-81
2020/12/09 05:33:32;;;;;;;395.90;90.10;;;1.80;99.90;;;;;;4195020;28;20260;-80
2020/12/09 05:35:32;;;;;;;417.17;89.47;;;1.90;99.90;;;;;;4182030;28;20029;-80
2020/12/09 05:37:33;;;;;;;368.98;89.60;;;1.90;99.90;;;;;;4200298;28;20035;-80
2020/12/09 05:39:47;;;;;;;522.80;102.82;;;1.90;99.90;;;;;;4194832;28;20526;-80
2020/12/09 05:41:47;;;;;;;;;;;1.90;99.90;;;;;;4203884;28;20127;-79
2020/12/09 05:43:48;;;;;;;759.28;124.88;;;1.90;99.90;;;;;;4203829;28;19915;-80
2020/12/09 05:45:49;;;;;;;792.03;132.90;;;1.90;99.90;;;;;;4206146;28;20029;-80
2020/12/09 05:48:11;;;;;;;607.03;106.85;;;1.80;99.90;;;;;;4209100;28;20035;-80
2020/12/09 05:50:11;;;;;;;650.72;118.22;;;1.80;99.90;;;;;;4197865;28;20128;-80
2020/12/09 05:52:20;;;;;;;617.65;110.50;;;1.80;99.90;;;;;;4201296;28;20028;-81
2020/12/09 05:54:26;;;;;;;679.45;119.07;;;1.80;99.90;;;;;;4206936;28;20027;-80
2020/12/09 05:56:27;;;;;;;682.67;122.00;;;1.90;99.90;;;;;;4191755;28;20070;-80
2020/12/09 05:58:29;;;;;;;798.90;135.15;;;1.90;99.90;;;;;;4214630;28;20102;-80
2020/12/09 06:00:29;;;;;;;763.50;133.25;;;1.80;99.90;;;;;;4196866;28;20479;-82
2020/12/09 06:02:30;;;;;;;711.20;125.80;;;1.90;99.90;;;;;;4196523;28;20035;-80
2020/12/09 06:04:52;;;;;;;703.03;120.25;;;1.90;99.90;;;;;;4214879;28;20039;-81
2020/12/09 06:06:57;;;;;;;790.63;131.90;;;1.90;99.90;;;;;;4196884;28;20120;-82
2020/12/09 06:09:00;;;;;;;614.85;112.53;;;1.90;99.90;;;;;;4198685;28;20032;-80
2020/12/09 06:11:00;;;;;;;856.60;141.77;;;1.80;99.90;;;;;;4196524;28;20024;-80
2020/12/09 06:13:01;;;;;;;704.97;126.00;;;1.80;99.90;;;;;;4206056;28;20028;-79
2020/12/09 06:15:19;;;;;;;869.75;139.40;;;1.80;99.90;;;;;;4208266;28;20101;-80
2020/12/09 06:17:19;;;;;;;673.35;115.47;;;1.80;99.90;;;;;;4198755;28;20021;-80
2020/12/09 06:19:20;;;;;;;912.72;145.73;;;1.80;99.90;;;;;;4187272;28;20062;-80
2020/12/09 06:21:21;;;;;;;838.38;138.95;;;1.80;99.90;;;;;;4196424;28;20028;-80
2020/12/09 06:23:22;;;;;;;977.65;157.93;;;1.80;99.90;;;;;;4213292;28;20109;-81
2020/12/09 06:25:24;;;;;;;775.17;126.70;;;1.80;99.90;;;;;;4211468;28;20079;-80
2020/12/09 06:27:30;;;;;;;828.65;136.60;;;1.70;99.90;;;;;;4197785;28;20480;-81
2020/12/09 06:29:30;;;;;;;846.20;136.80;;;1.70;99.90;;;;;;4210141;28;20077;-81
2020/12/09 06:31:31;;;;;;;648.80;110.97;;;1.70;99.90;;;;;;4194866;28;20033;-80
2020/12/09 06:33:36;;;;;;;757.92;129.43;;;1.70;99.90;;;;;;4189999;28;20055;-81
2020/12/09 06:35:37;;;;;;;737.03;126.03;;;1.70;99.90;;;;;;4211169;28;20028;-82
2020/12/09 06:37:38;;;;;;;814.33;132.35;;;1.70;99.90;;;;;;4209849;28;20031;-81
2020/12/09 06:39:39;;;;;;;708.65;119.90;;;1.70;99.90;;;;;;4213588;28;20561;-81
2020/12/09 06:41:57;;;;;;;731.88;122.70;;;1.60;99.90;;;;;;4211900;28;20409;-81
2020/12/09 06:44:09;;;;;;;664.90;115.05;;;1.60;99.90;;;;;;4195418;28;20063;-81
2020/12/09 06:46:10;;;;;;;686.67;116.10;;;1.50;99.90;;;;;;4211562;28;20093;-81
2020/12/09 06:48:15;;;;;;;424.13;71.18;;;1.50;99.90;;;;;;4200454;28;20033;-80
2020/12/09 06:50:29;;;;;;;557.45;91.25;;;1.50;99.90;;;;;;4193897;28;20487;-82
2020/12/09 06:52:34;;;;;;;462.42;84.07;;;1.50;99.90;;;;;;4194295;28;20055;-81
2020/12/09 06:54:43;;;;;;;575.22;95.53;;;1.30;99.90;;;;;;4205530;28;20028;-81
2020/12/09 06:57:04;;;;;;;350.90;64.75;;;1.30;99.90;;;;;;4191264;28;20035;-81
2020/12/09 06:59:24;;;;;;;530.58;87.72;;;1.20;99.90;;;;;;4196607;28;20116;-81
2020/12/09 07:01:26;;;;;;;468.00;80.03;;;1.10;99.90;;;;;;4196821;28;20418;-81
2020/12/09 07:03:28;;;;;;;470.88;83.57;;;1.00;99.90;;;;;;4192183;28;20036;-81
2020/12/09 07:05:30;;;;;;;429.50;77.43;;;0.90;99.90;;;;;;4199098;28;20380;-81
2020/12/09 07:07:48;;;;;;;468.30;74.10;;;0.90;99.90;;;;;;4196847;28;20039;-81
2020/12/09 07:09:48;;;;;;;433.15;79.47;;;0.90;99.90;;;;;;4196639;28;20025;-82
2020/12/09 07:11:53;;;;;;;586.05;92.13;;;0.90;99.90;;;;;;4190772;28;20162;-81
2020/12/09 07:14:01;;;;;;;556.70;93.30;;;0.80;99.90;;;;;;4200252;28;20024;-82
2020/12/09 07:16:02;;;;;;;501.25;84.40;;;0.80;99.90;;;;;;4181379;28;20454;-80
2020/12/09 07:18:03;;;;;;;545.03;92.18;;;0.80;99.90;;;;;;4206311;28;20021;-81
2020/12/09 07:20:05;;;;;;;396.67;73.35;;;0.80;99.90;;;;;;4196775;28;20039;-81
2020/12/09 07:22:06;;;;;;;525.47;92.40;;;0.80;99.90;;;;;;4191547;28;20108;-80
2020/12/09 07:24:06;;;;;;;406.02;74.82;;;0.80;99.90;;;;;;4190679;28;20058;-81
2020/12/09 07:26:07;;;;;;;550.47;95.20;;;0.80;99.90;;;;;;4194410;28;20446;-81
2020/12/09 07:28:08;;;;;;;534.83;90.53;;;0.80;99.90;;;;;;4186168;28;20112;-80
2020/12/09 07:30:11;;;;;;;440.10;85.00;;;0.70;99.90;;;;;;4192917;28;20459;-81
2020/12/09 07:32:22;;;;;;;;;;;0.70;99.90;;;;;;4193889;28;20028;-80
2020/12/09 07:34:22;;;;;;;492.58;80.05;;;0.80;99.90;;;;;;4187789;28;19909;-81
2020/12/09 07:36:23;;;;;;;466.98;79.03;;;0.80;99.90;;;;;;4209958;28;20024;-81
2020/12/09 07:38:23;;;;;;;516.00;90.35;;;0.70;99.90;;;;;;4184212;28;20368;-80
2020/12/09 07:40:31;;;;;;;536.50;91.60;;;0.70;99.90;;;;;;4211613;28;20454;-80
2020/12/09 07:42:31;;;;;;;477.23;86.22;;;0.70;99.90;;;;;;4211724;28;20502;-81
2020/12/09 07:44:41;;;;;;;497.05;90.85;;;0.60;99.90;;;;;;4208941;28;20127;-80
2020/12/09 07:47:00;;;;;;;511.48;91.15;;;0.60;99.90;;;;;;4206306;28;20522;-81
2020/12/09 07:49:00;;;;;;;540.03;91.85;;;0.50;99.90;;;;;;4203129;28;20040;-81
2020/12/09 07:51:01;;;;;;;465.10;88.47;;;0.50;99.90;;;;;;4192356;28;20047;-80
2020/12/09 07:53:03;;;;;;;479.95;84.82;;;0.50;99.90;;;;;;4193706;28;20152;-80
2020/12/09 07:55:21;;;;;;;532.60;95.80;;;0.40;99.90;;;;;;4209083;28;20051;-80
2020/12/09 07:57:42;;;;;;;324.65;62.22;;;0.40;99.90;;;;;;4211005;28;20028;-81
2020/12/09 07:59:43;;;;;;;492.67;86.93;;;0.40;99.90;;;;;;4200426;28;20078;-81
2020/12/09 08:01:44;;;;;;;445.58;78.97;;;0.30;99.90;;;;;;4206366;28;20032;-81
2020/12/09 08:03:44;;;;;;;453.17;83.45;;;0.30;99.90;;;;;;4204024;28;20027;-81
2020/12/09 08:05:45;;;;;;;499.33;88.13;;;0.20;99.90;;;;;;4200045;28;20079;-81
2020/12/09 08:08:00;;;;;;;454.48;84.90;;;0.20;99.90;;;;;;4200314;28;20049;-81
2020/12/09 08:10:09;;;;;;;505.65;90.05;;;0.10;99.90;;;;;;4200970;28;20059;-81
2020/12/09 08:12:10;;;;;;;382.15;71.68;;;0.10;99.90;;;;;;4182625;28;20029;-81
2020/12/09 08:14:11;;;;;;;386.17;73.40;;;0.10;99.90;;;;;;4208768;28;20066;-78
2020/12/09 08:16:13;;;;;;;350.27;66.53;;;0.10;99.90;;;;;;4194914;28;20021;-81
2020/12/09 08:18:22;;;;;;;513.13;93.65;;;0.10;99.90;;;;;;4206986;28;20039;-80
2020/12/09 08:20:24;;;;;;;506.25;88.35;;;0.10;99.90;;;;;;4202621;28;20483;-81
2020/12/09 08:22:24;;;;;;;431.88;75.25;;;0.00;99.90;;;;;;4206174;28;20034;-80
2020/12/09 08:24:25;;;;;;;442.83;77.35;;;0.00;99.90;;;;;;4209669;28;20052;-80
2020/12/09 08:26:31;;;;;;;455.20;81.60;;;-0.10;99.90;;;;;;4200812;28;20641;-81
2020/12/09 08:28:34;;;;;;;441.02;81.65;;;-0.20;99.90;;;;;;4195874;28;20115;-80
2020/12/09 08:30:35;;;;;;;470.45;84.45;;;-0.20;99.90;;;;;;4201238;28;20025;-81
2020/12/09 08:32:54;;;;;;;357.08;67.97;;;-0.20;99.90;;;;;;4197115;28;20033;-80
2020/12/09 08:35:10;;;;;;;354.10;73.82;;;-0.30;99.90;;;;;;4200243;28;20070;-80
2020/12/09 08:37:15;;;;;;;361.80;72.80;;;-0.30;99.90;;;;;;4206056;28;20490;-80
2020/12/09 08:39:16;;;;;;;294.60;66.00;;;-0.40;99.90;;;;;;4191912;28;20443;-81
2020/12/09 08:41:26;;;;;;;409.95;75.55;;;-0.40;99.90;;;;;;4208621;28;20107;-80
2020/12/09 08:43:31;;;;;;;449.30;79.40;;;-0.40;99.90;;;;;;4184379;28;20033;-80
2020/12/09 08:45:32;;;;;;;329.85;63.83;;;-0.50;99.90;;;;;;4209410;28;20040;-80
2020/12/09 08:47:34;;;;;;;389.25;74.68;;;-0.50;99.90;;;;;;4196578;28;20033;-80
2020/12/09 08:49:35;;;;;;;442.67;76.60;;;-0.50;99.90;;;;;;4188825;28;20499;-80
2020/12/09 08:51:36;;;;;;;320.75;66.97;;;-0.50;99.90;;;;;;4207605;28;20039;-80
2020/12/09 08:53:37;;;;;;;404.10;79.47;;;-0.60;99.90;;;;;;4205522;28;20024;-80
2020/12/09 08:55:38;;;;;;;420.02;81.65;;;-0.60;99.90;;;;;;4212328;28;20543;-80
2020/12/09 08:57:38;;;;;;;358.95;75.97;;;-0.60;99.90;;;;;;4199276;28;20476;-79
2020/12/09 08:59:39;;;;;;;342.60;70.97;;;-0.60;99.90;;;;;;4210941;28;20047;-80
2020/12/09 09:01:39;;;;;;;392.38;76.20;;;-0.50;99.90;;;;;;4181910;28;20092;-80
2020/12/09 09:03:41;;;;;;;346.23;75.00;;;-0.50;99.90;;;;;;4191184;28;20028;-80
2020/12/09 09:05:42;;;;;;;447.40;84.50;;;-0.50;99.90;;;;;;4180321;28;20037;-79
2020/12/09 09:07:43;;;;;;;437.35;86.72;;;-0.50;99.90;;;;;;4196003;28;20064;-80
2020/12/09 09:09:43;;;;;;;479.02;86.43;;;-0.50;99.90;;;;;;4188352;28;20678;-80
2020/12/09 09:11:44;;;;;;;392.52;79.88;;;-0.50;99.90;;;;;;4191813;28;20040;-80
2020/12/09 09:13:45;;;;;;;333.77;70.13;;;-0.50;99.90;;;;;;4189581;28;20040;-80
2020/12/09 09:15:45;;;;;;;383.17;81.57;;;-0.50;99.90;;;;;;4197739;28;20359;-80
2020/12/09 09:17:46;;;;;;;327.80;77.35;;;-0.60;99.90;;;;;;4206498;28;20036;-80
2020/12/09 09:19:46;;;;;;;401.73;81.57;;;-0.60;99.90;;;;;;4193601;28;20499;-80
2020/12/09 09:21:47;;;;;;;314.65;74.90;;;-0.50;99.90;;;;;;4196646;28;20059;-80
2020/12/09 09:23:48;;;;;;;345.67;73.97;;;-0.50;99.90;;;;;;4202080;28;20040;-80
2020/12/09 09:25:48;;;;;;;313.00;77.47;;;-0.40;99.90;;;;;;4199799;28;20025;-81
2020/12/09 09:27:50;;;;;;;367.95;77.50;;;-0.30;99.90;;;;;;4211427;28;20059;-81
2020/12/09 09:29:51;;;;;;;371.17;75.93;;;-0.40;99.90;;;;;;4209867;28;20450;-80
2020/12/09 09:31:51;;;;;;;290.65;66.53;;;-0.40;99.90;;;;;;4201851;28;20537;-78
2020/12/09 09:33:52;;;;;;;386.50;77.45;;;-0.30;99.90;;;;;;4181341;28;20040;-78
2020/12/09 09:35:53;;;;;;;329.27;69.80;;;-0.40;99.90;;;;;;4180031;28;20043;-78
2020/12/09 09:37:53;;;;;;;342.00;75.82;;;-0.40;99.90;;;;;;4207282;28;20027;-79
2020/12/09 09:39:54;;;;;;;289.38;69.85;;;-0.40;99.90;;;;;;4212042;28;20028;-79
2020/12/09 09:41:57;;;;;;;274.83;69.90;;;-0.40;99.90;;;;;;4199709;28;20134;-79
2020/12/09 09:43:58;;;;;;;;;;;-0.40;99.90;;;;;;4189577;28;20448;-81
2020/12/09 09:46:00;;;;;;;266.67;58.90;;;-0.40;99.90;;;;;;4208663;28;19915;-79
2020/12/09 09:48:01;;;;;;;261.77;65.38;;;-0.40;99.90;;;;;;4197748;28;20063;-79
2020/12/09 09:50:03;;;;;;;341.33;79.43;;;-0.40;99.90;;;;;;4206802;28;20043;-80
2020/12/09 09:52:04;;;;;;;317.10;74.40;;;-0.30;99.90;;;;;;4191755;28;20416;-81
2020/12/09 09:54:04;;;;;;;311.63;75.72;;;-0.30;99.90;;;;;;4196455;28;20039;-78
2020/12/09 09:56:06;;;;;;;292.55;75.40;;;-0.20;99.90;;;;;;4211089;28;20458;-81
2020/12/09 09:58:07;;;;;;;284.70;71.40;;;-0.20;99.90;;;;;;4200043;28;20510;-80
2020/12/09 10:00:07;;;;;;;297.73;71.53;;;-0.10;99.90;;;;;;4199006;28;20119;-80
2020/12/09 10:02:08;;;;;;;312.35;78.65;;;-0.10;99.90;;;;;;4185850;28;20502;-81
2020/12/09 10:04:09;;;;;;;375.10;83.55;;;-0.10;99.90;;;;;;4190079;28;20467;-81
2020/12/09 10:06:09;;;;;;;291.55;74.47;;;-0.10;99.90;;;;;;4192307;28;20512;-78
2020/12/09 10:08:10;;;;;;;290.80;75.43;;;-0.10;99.90;;;;;;4197368;28;20063;-81
2020/12/09 10:10:11;;;;;;;315.42;72.15;;;-0.20;99.90;;;;;;4204370;28;20020;-81
2020/12/09 10:12:11;;;;;;;326.88;75.90;;;-0.20;99.90;;;;;;4201701;28;20048;-81
2020/12/09 10:14:13;;;;;;;284.33;71.88;;;-0.10;99.90;;;;;;4187878;28;20024;-81
2020/12/09 10:16:24;;;;;;;252.85;62.03;;;-0.20;99.90;;;;;;4192239;28;20027;-78
2020/12/09 10:18:25;;;;;;;283.85;69.97;;;-0.20;99.90;;;;;;4209034;28;20020;-81